createdAt,value
2023-05-19T00:00:52.304Z,76.81
2023-05-19T00:01:55.020Z,76.71
2023-05-19T00:02:57.287Z,76.49
2023-05-19T00:04:02.721Z,76.88
2023-05-19T00:05:05.065Z,76.59
2023-05-19T00:06:10.605Z,76.32
2023-05-19T00:07:13.121Z,76.24
2023-05-19T00:08:16.385Z,76.66
2023-05-19T00:09:18.496Z,77.03
2023-05-19T00:10:20.515Z,77.19
2023-05-19T00:11:22.910Z,78.30
2023-05-19T00:12:24.840Z,77.29
2023-05-19T00:13:27.198Z,76.88
2023-05-19T00:14:29.418Z,76.89
2023-05-19T00:15:31.453Z,77.31
2023-05-19T00:16:34.002Z,78.30
2023-05-19T00:17:37.089Z,77.65
2023-05-19T00:18:38.844Z,77.85
2023-05-19T00:19:40.675Z,78.22
2023-05-19T00:20:42.889Z,77.42
2023-05-19T00:21:44.512Z,78.13
2023-05-19T00:22:46.180Z,78.24
2023-05-19T00:23:47.869Z,77.63
2023-05-19T00:24:49.574Z,77.58
2023-05-19T00:25:52.317Z,77.15
2023-05-19T00:26:54.015Z,76.83
2023-05-19T00:27:55.769Z,77.36
2023-05-19T00:28:57.472Z,77.26
2023-05-19T00:29:59.126Z,77.27
2023-05-19T00:31:02.265Z,77.82
2023-05-19T00:32:04.268Z,77.57
2023-05-19T00:33:08.903Z,77.85
2023-05-19T00:34:10.527Z,77.70
2023-05-19T00:35:12.395Z,78.04
2023-05-19T00:36:14.127Z,78.20
2023-05-19T00:37:15.773Z,78.65
2023-05-19T00:38:17.570Z,78.44
2023-05-19T00:39:19.255Z,78.85
2023-05-19T00:40:21.396Z,78.46
2023-05-19T00:41:22.998Z,78.41
2023-05-19T00:42:24.615Z,77.76
2023-05-19T00:43:26.375Z,78.60
2023-05-19T00:44:28.319Z,78.21
2023-05-19T00:45:29.986Z,78.36
2023-05-19T00:46:31.617Z,79.12
2023-05-19T00:47:33.550Z,78.98
2023-05-19T00:48:35.174Z,79.09
2023-05-19T00:49:36.825Z,78.44
2023-05-19T00:50:38.740Z,79.38
2023-05-19T00:51:40.798Z,79.36
2023-05-19T00:52:42.494Z,79.48
2023-05-19T00:53:48.592Z,79.13
2023-05-19T00:54:51.734Z,79.41
2023-05-19T00:55:53.558Z,79.07
2023-05-19T00:56:55.450Z,78.96
2023-05-19T00:57:57.371Z,79.08
2023-05-19T00:58:59.518Z,79.01
2023-05-19T01:00:01.325Z,78.66
2023-05-19T01:01:04.480Z,79.29
2023-05-19T01:02:06.910Z,79.29
2023-05-19T01:03:11.471Z,79.83
2023-05-19T01:04:47.004Z,79.61
2023-05-19T01:05:49.803Z,79.64
2023-05-19T01:06:54.835Z,79.72
2023-05-19T01:07:56.633Z,78.89
2023-05-19T01:08:58.371Z,79.11
2023-05-19T01:10:00.057Z,79.48
2023-05-19T01:11:01.796Z,80.39
2023-05-19T01:12:03.981Z,79.79
2023-05-19T01:13:06.316Z,79.54
2023-05-19T01:14:08.117Z,78.91
2023-05-19T01:15:10.332Z,80.07
2023-05-19T01:16:13.134Z,80.06
2023-05-19T01:17:23.149Z,79.33
2023-05-19T01:18:47.839Z,79.73
2023-05-19T01:20:18.561Z,79.72
2023-05-19T01:21:30.468Z,79.46
2023-05-19T01:23:05.899Z,79.75
2023-05-19T01:24:18.418Z,79.12
2023-05-19T01:25:57.271Z,79.73
2023-05-19T01:27:31.459Z,79.82
2023-05-19T01:28:57.399Z,80.12
2023-05-19T01:30:25.379Z,79.74
2023-05-19T01:31:27.128Z,79.21
2023-05-19T01:32:29.322Z,79.58
2023-05-19T01:33:31.506Z,79.74
2023-05-19T01:34:36.099Z,79.99
2023-05-19T01:35:39.168Z,79.95
2023-05-19T01:36:41.861Z,80.02
2023-05-19T01:37:45.325Z,80.02
2023-05-19T01:38:49.969Z,79.72
2023-05-19T01:39:52.407Z,79.82
2023-05-19T01:40:54.541Z,79.92
2023-05-19T01:41:56.631Z,80.16
2023-05-19T01:43:00.243Z,80.09
2023-05-19T01:44:02.361Z,79.67
2023-05-19T01:45:06.597Z,80.03
2023-05-19T01:46:08.515Z,80.23
2023-05-19T01:47:10.996Z,80.01
2023-05-19T01:48:13.485Z,79.92
2023-05-19T01:49:15.066Z,80.38
2023-05-19T01:50:19.435Z,80.31
2023-05-19T01:51:21.072Z,79.71
2023-05-19T01:52:22.746Z,79.90
2023-05-19T01:53:24.954Z,80.21
2023-05-19T01:54:26.568Z,79.61
2023-05-19T01:55:28.184Z,80.55
2023-05-19T01:56:49.603Z,79.99
2023-05-19T01:58:13.200Z,80.07
2023-05-19T01:59:44.791Z,79.58
2023-05-19T02:01:19.955Z,79.95
2023-05-19T02:02:36.997Z,80.45
2023-05-19T02:03:59.408Z,80.65
2023-05-19T02:05:10.397Z,80.08
2023-05-19T02:06:29.926Z,79.98
2023-05-19T02:07:42.802Z,80.16
2023-05-19T02:08:52.160Z,79.86
2023-05-19T02:10:05.834Z,80.66
2023-05-19T02:11:17.971Z,80.54
2023-05-19T02:12:24.888Z,80.56
2023-05-19T02:13:30.358Z,80.34
2023-05-19T02:14:51.123Z,80.51
2023-05-19T02:15:52.737Z,80.32
2023-05-19T02:16:57.717Z,80.65
2023-05-19T02:18:00.299Z,80.88
2023-05-19T02:19:02.693Z,80.68
2023-05-19T02:20:05.009Z,80.38
2023-05-19T02:21:06.878Z,80.75
2023-05-19T02:22:08.519Z,82.04
2023-05-19T02:23:10.143Z,80.20
2023-05-19T02:24:11.738Z,80.17
2023-05-19T02:25:13.446Z,80.74
2023-05-19T02:26:15.078Z,79.88
2023-05-19T02:27:16.674Z,79.63
2023-05-19T02:28:18.790Z,79.56
2023-05-19T02:29:21.044Z,80.17
2023-05-19T02:30:22.761Z,81.04
2023-05-19T02:31:24.429Z,80.63
2023-05-19T02:32:26.205Z,80.70
2023-05-19T02:33:30.388Z,80.73
2023-05-19T02:34:32.034Z,79.94
2023-05-19T02:35:33.893Z,79.94
2023-05-19T02:36:39.051Z,79.90
2023-05-19T02:37:40.679Z,81.31
2023-05-19T02:38:42.599Z,80.37
2023-05-19T02:39:44.591Z,79.69
2023-05-19T02:40:47.243Z,79.71
2023-05-19T02:41:48.977Z,80.31
2023-05-19T02:42:50.620Z,79.62
2023-05-19T02:43:52.263Z,79.67
2023-05-19T02:44:55.070Z,81.23
2023-05-19T02:45:56.723Z,80.09
2023-05-19T02:46:58.350Z,80.92
2023-05-19T02:48:00.028Z,79.92
2023-05-19T02:49:01.732Z,79.39
2023-05-19T02:50:03.624Z,80.14
2023-05-19T02:51:05.777Z,79.36
2023-05-19T02:52:07.462Z,79.63
2023-05-19T02:53:09.439Z,79.75
2023-05-19T02:54:11.213Z,79.55
2023-05-19T02:55:17.031Z,79.45
2023-05-19T02:56:18.682Z,79.51
2023-05-19T02:57:20.583Z,79.99
2023-05-19T02:58:22.203Z,79.96
2023-05-19T02:59:25.610Z,79.73
2023-05-19T03:00:27.469Z,79.41
2023-05-19T03:01:29.132Z,79.00
2023-05-19T03:02:33.331Z,79.34
2023-05-19T03:03:35.301Z,79.63
2023-05-19T03:04:41.730Z,79.91
2023-05-19T03:05:43.676Z,79.20
2023-05-19T03:06:45.454Z,79.29
2023-05-19T03:07:47.494Z,79.05
2023-05-19T03:08:49.834Z,79.89
2023-05-19T03:09:52.440Z,80.68
2023-05-19T03:10:54.057Z,79.19
2023-05-19T03:11:55.764Z,79.73
2023-05-19T03:12:57.378Z,80.21
2023-05-19T03:13:58.982Z,80.34
2023-05-19T03:15:01.050Z,79.51
2023-05-19T03:16:03.492Z,80.07
2023-05-19T03:17:08.502Z,79.70
2023-05-19T03:18:11.934Z,79.87
2023-05-19T03:19:13.667Z,79.46
2023-05-19T03:20:17.978Z,79.66
2023-05-19T03:21:19.613Z,80.16
2023-05-19T03:22:21.439Z,79.79
2023-05-19T03:23:23.190Z,79.98
2023-05-19T03:24:24.850Z,79.92
2023-05-19T03:25:26.592Z,79.43
2023-05-19T03:26:29.353Z,79.59
2023-05-19T03:27:31.614Z,79.23
2023-05-19T03:28:33.229Z,79.74
2023-05-19T03:29:34.901Z,79.64
2023-05-19T03:30:37.348Z,79.77
2023-05-19T03:32:01.748Z,79.67
2023-05-19T03:33:05.420Z,80.51
2023-05-19T03:34:07.162Z,80.24
2023-05-19T03:35:08.971Z,79.52
2023-05-19T03:36:12.609Z,80.42
2023-05-19T03:37:14.482Z,80.22
2023-05-19T03:38:16.339Z,80.67
2023-05-19T03:39:25.651Z,80.69
2023-05-19T03:40:28.057Z,79.81
2023-05-19T03:41:36.616Z,79.69
2023-05-19T03:42:38.616Z,80.31
2023-05-19T03:43:40.928Z,80.63
2023-05-19T03:44:44.675Z,80.63
2023-05-19T03:45:46.897Z,80.12
2023-05-19T03:47:17.699Z,80.12
2023-05-19T03:48:21.824Z,80.62
2023-05-19T03:49:42.047Z,80.33
2023-05-19T03:50:44.530Z,82.05
2023-05-19T03:51:53.653Z,80.41
2023-05-19T03:53:21.947Z,80.23
2023-05-19T03:54:23.571Z,79.86
2023-05-19T03:55:26.163Z,80.03
2023-05-19T03:56:28.355Z,80.45
2023-05-19T03:57:29.950Z,80.79
2023-05-19T03:58:31.535Z,80.37
2023-05-19T03:59:33.242Z,80.84
2023-05-19T04:00:35.135Z,80.66
2023-05-19T04:01:37.884Z,80.62
2023-05-19T04:02:40.090Z,80.94
2023-05-19T04:03:42.555Z,80.24
2023-05-19T04:04:44.176Z,80.58
2023-05-19T04:05:45.982Z,80.83
2023-05-19T04:06:48.703Z,80.15
2023-05-19T04:07:51.056Z,80.28
2023-05-19T04:08:52.797Z,80.21
2023-05-19T04:09:54.429Z,80.07
2023-05-19T04:10:56.645Z,80.30
2023-05-19T04:11:58.259Z,79.79
2023-05-19T04:12:59.893Z,80.29
2023-05-19T04:14:01.516Z,80.21
2023-05-19T04:15:03.320Z,80.01
2023-05-19T04:16:05.748Z,79.71
2023-05-19T04:17:07.579Z,79.58
2023-05-19T04:18:09.257Z,80.32
2023-05-19T04:19:10.968Z,80.04
2023-05-19T04:20:12.878Z,79.95
2023-05-19T04:21:14.516Z,80.29
2023-05-19T04:22:16.259Z,80.02
2023-05-19T04:23:17.896Z,80.45
2023-05-19T04:24:19.492Z,80.52
2023-05-19T04:25:21.602Z,80.68
2023-05-19T04:26:24.864Z,80.49
2023-05-19T04:27:28.014Z,80.02
2023-05-19T04:28:30.172Z,80.30
2023-05-19T04:29:32.637Z,81.38
2023-05-19T04:30:34.676Z,80.76
2023-05-19T04:31:37.117Z,80.22
2023-05-19T04:32:41.420Z,80.43
2023-05-19T04:33:43.212Z,80.53
2023-05-19T04:34:46.100Z,79.95
2023-05-19T04:35:52.897Z,80.24
2023-05-19T04:36:55.526Z,80.51
2023-05-19T04:37:57.542Z,80.55
2023-05-19T04:39:07.292Z,80.65
2023-05-19T04:40:11.158Z,80.70
2023-05-19T04:41:13.109Z,80.29
2023-05-19T04:42:19.194Z,80.23
2023-05-19T04:43:22.222Z,80.47
2023-05-19T04:44:25.006Z,79.73
2023-05-19T04:45:26.985Z,80.31
2023-05-19T04:46:31.239Z,81.13
2023-05-19T04:47:36.950Z,81.30
2023-05-19T04:48:40.110Z,80.38
2023-05-19T04:49:41.836Z,80.61
2023-05-19T04:50:43.491Z,80.51
2023-05-19T04:51:46.154Z,80.53
2023-05-19T04:52:47.813Z,80.08
2023-05-19T04:53:49.764Z,80.19
2023-05-19T04:54:51.461Z,79.59
2023-05-19T04:55:53.059Z,80.21
2023-05-19T04:56:54.723Z,79.72
2023-05-19T04:57:56.474Z,80.04
2023-05-19T04:58:58.266Z,80.05
2023-05-19T05:00:01.495Z,80.05
2023-05-19T05:01:13.756Z,79.29
2023-05-19T05:02:16.114Z,79.61
2023-05-19T05:03:18.466Z,79.50
2023-05-19T05:04:21.602Z,79.34
2023-05-19T05:05:23.877Z,79.68
2023-05-19T05:06:26.543Z,79.69
2023-05-19T05:07:29.766Z,79.90
2023-05-19T05:08:33.533Z,79.64
2023-05-19T05:09:35.762Z,79.34
2023-05-19T05:10:37.520Z,79.13
2023-05-19T05:11:40.200Z,79.74
2023-05-19T05:12:42.282Z,79.88
2023-05-19T05:13:44.976Z,79.78
2023-05-19T05:14:46.938Z,79.47
2023-05-19T05:15:49.192Z,79.76
2023-05-19T05:16:51.919Z,79.38
2023-05-19T05:17:58.085Z,79.55
2023-05-19T05:19:01.259Z,78.96
2023-05-19T05:20:05.975Z,79.60
2023-05-19T05:21:08.109Z,79.60
2023-05-19T05:22:10.181Z,79.31
2023-05-19T05:23:15.204Z,79.18
2023-05-19T05:24:18.851Z,78.79
2023-05-19T05:25:25.552Z,79.60
2023-05-19T05:26:30.464Z,78.26
2023-05-19T05:27:32.687Z,78.38
2023-05-19T05:28:34.403Z,79.16
2023-05-19T05:29:36.763Z,78.03
2023-05-19T05:30:41.483Z,78.29
2023-05-19T05:31:43.105Z,78.43
2023-05-19T05:32:45.665Z,78.72
2023-05-19T05:34:01.712Z,78.88
2023-05-19T05:35:06.551Z,78.06
2023-05-19T05:36:08.643Z,78.04
2023-05-19T05:37:11.378Z,78.84
2023-05-19T05:38:14.258Z,77.95
2023-05-19T05:39:16.966Z,78.83
2023-05-19T05:40:20.319Z,78.53
2023-05-19T05:41:22.446Z,78.84
2023-05-19T05:42:27.671Z,77.77
2023-05-19T05:43:31.224Z,77.55
2023-05-19T05:44:35.901Z,77.90
2023-05-19T05:45:39.227Z,77.76
2023-05-19T05:46:41.606Z,78.20
2023-05-19T05:47:44.311Z,80.80
2023-05-19T05:48:46.476Z,79.45
2023-05-19T05:49:48.738Z,77.13
2023-05-19T05:50:52.352Z,76.53
2023-05-19T05:52:05.474Z,77.70
2023-05-19T05:53:20.412Z,77.34
2023-05-19T05:54:25.015Z,78.28
2023-05-19T05:55:28.011Z,76.56
2023-05-19T05:56:29.884Z,76.93
2023-05-19T05:57:31.537Z,76.96
2023-05-19T05:58:36.352Z,77.25
2023-05-19T05:59:40.685Z,77.31
2023-05-19T06:00:43.734Z,76.89
2023-05-19T06:01:45.440Z,78.06
2023-05-19T06:02:49.367Z,76.59
2023-05-19T06:03:52.431Z,76.98
2023-05-19T06:04:57.582Z,77.28
2023-05-19T06:05:59.471Z,76.37
2023-05-19T06:07:01.891Z,76.79
2023-05-19T06:08:07.971Z,76.51
2023-05-19T06:09:10.272Z,78.01
2023-05-19T06:10:11.934Z,76.13
2023-05-19T06:11:13.607Z,75.92
2023-05-19T06:12:16.260Z,75.70
2023-05-19T06:13:24.156Z,75.46
2023-05-19T06:14:25.973Z,75.60
2023-05-19T06:15:45.975Z,74.71
2023-05-19T06:16:55.696Z,74.98
2023-05-19T06:17:57.422Z,74.60
2023-05-19T06:18:59.229Z,74.57
2023-05-19T06:20:01.268Z,74.12
2023-05-19T06:21:03.520Z,74.88
2023-05-19T06:22:05.518Z,73.56
2023-05-19T06:23:08.193Z,73.38
2023-05-19T06:24:10.794Z,73.60
2023-05-19T06:25:12.597Z,72.73
2023-05-19T06:26:15.279Z,73.37
2023-05-19T06:27:16.927Z,72.84
2023-05-19T06:28:18.607Z,72.54
2023-05-19T06:29:20.382Z,71.75
2023-05-19T06:30:24.993Z,72.53
2023-05-19T06:31:35.765Z,72.54
2023-05-19T06:32:49.316Z,71.89
2023-05-19T06:33:51.052Z,72.49
2023-05-19T06:34:55.943Z,74.89
2023-05-19T06:35:57.602Z,70.91
2023-05-19T06:36:59.476Z,70.18
2023-05-19T06:38:01.240Z,70.37
2023-05-19T06:39:03.049Z,70.29
2023-05-19T06:40:07.032Z,70.86
2023-05-19T06:41:08.954Z,70.13
2023-05-19T06:42:10.794Z,71.54
2023-05-19T06:43:25.789Z,71.53
2023-05-19T06:44:29.687Z,70.58
2023-05-19T06:45:31.358Z,70.02
2023-05-19T06:46:35.289Z,69.43
2023-05-19T06:47:37.121Z,70.05
2023-05-19T06:48:39.216Z,70.78
2023-05-19T06:49:42.745Z,71.23
2023-05-19T06:50:44.660Z,71.20
2023-05-19T06:51:46.624Z,70.56
2023-05-19T06:52:48.593Z,71.17
2023-05-19T06:53:50.305Z,71.00
2023-05-19T06:54:51.978Z,70.89
2023-05-19T06:55:59.425Z,71.22
2023-05-19T06:57:05.718Z,71.61
2023-05-19T06:58:07.950Z,71.50
2023-05-19T06:59:09.791Z,71.75
2023-05-19T07:00:15.152Z,71.53
2023-05-19T07:01:21.374Z,72.82
2023-05-19T07:02:28.441Z,72.50
2023-05-19T07:03:31.214Z,72.27
2023-05-19T07:04:33.943Z,71.80
2023-05-19T07:05:35.711Z,72.31
2023-05-19T07:06:37.641Z,71.53
2023-05-19T07:07:39.320Z,71.99
2023-05-19T07:08:45.559Z,71.67
2023-05-19T07:09:47.523Z,71.16
2023-05-19T07:10:49.226Z,71.15
2023-05-19T07:11:52.079Z,73.08
2023-05-19T07:12:53.894Z,71.26
2023-05-19T07:13:58.441Z,71.84
2023-05-19T07:15:03.495Z,71.08
2023-05-19T07:16:05.582Z,70.46
2023-05-19T07:17:07.966Z,70.80
2023-05-19T07:18:11.433Z,70.91
2023-05-19T07:19:13.540Z,71.72
2023-05-19T07:20:15.200Z,70.95
2023-05-19T07:21:16.970Z,70.65
2023-05-19T07:22:18.576Z,70.38
2023-05-19T07:23:20.340Z,69.55
2023-05-19T07:24:22.549Z,70.02
2023-05-19T07:25:24.272Z,70.87
2023-05-19T07:26:26.821Z,69.69
2023-05-19T07:27:28.478Z,69.38
2023-05-19T07:28:30.152Z,70.11
2023-05-19T07:29:31.858Z,69.16
2023-05-19T07:30:33.951Z,69.52
2023-05-19T07:31:35.832Z,68.75
2023-05-19T07:32:37.609Z,68.70
2023-05-19T07:33:39.352Z,68.79
2023-05-19T07:34:40.972Z,68.80
2023-05-19T07:35:42.705Z,68.43
2023-05-19T07:36:44.343Z,69.25
2023-05-19T07:37:46.114Z,68.32
2023-05-19T07:38:47.940Z,69.66
2023-05-19T07:39:49.614Z,67.23
2023-05-19T07:40:51.232Z,66.77
2023-05-19T07:41:55.657Z,68.50
2023-05-19T07:42:57.297Z,67.35
2023-05-19T07:43:59.055Z,67.15
2023-05-19T07:45:01.187Z,67.34
2023-05-19T07:46:02.968Z,67.61
2023-05-19T07:47:04.686Z,67.78
2023-05-19T07:48:06.385Z,66.99
2023-05-19T07:49:08.082Z,67.32
2023-05-19T07:50:09.829Z,67.86
2023-05-19T07:51:12.669Z,68.58
2023-05-19T07:52:14.349Z,66.77
2023-05-19T07:53:16.690Z,66.60
2023-05-19T07:54:18.615Z,66.40
2023-05-19T07:55:23.104Z,66.87
2023-05-19T07:56:24.985Z,65.58
2023-05-19T07:57:26.730Z,64.49
2023-05-19T07:58:28.431Z,67.23
2023-05-19T07:59:30.122Z,64.07
2023-05-19T08:00:32.040Z,64.77
2023-05-19T08:01:34.208Z,63.72
2023-05-19T08:02:35.927Z,64.27
2023-05-19T08:03:37.795Z,62.69
2023-05-19T08:04:39.636Z,63.56
2023-05-19T08:05:41.367Z,63.58
2023-05-19T08:06:44.364Z,62.94
2023-05-19T08:07:46.133Z,62.93
2023-05-19T08:08:47.822Z,63.10
2023-05-19T08:09:49.477Z,62.96
2023-05-19T08:10:51.296Z,63.53
2023-05-19T08:11:52.981Z,63.34
2023-05-19T08:12:54.750Z,61.84
2023-05-19T08:13:56.414Z,62.33
2023-05-19T08:15:00.369Z,62.86
2023-05-19T08:16:03.093Z,63.12
2023-05-19T08:17:06.209Z,65.18
2023-05-19T08:18:07.904Z,62.16
2023-05-19T08:19:09.770Z,62.63
2023-05-19T08:20:14.390Z,62.64
2023-05-19T08:21:16.179Z,62.88
2023-05-19T08:22:17.861Z,62.24
2023-05-19T08:23:19.509Z,63.18
2023-05-19T08:24:21.131Z,64.14
2023-05-19T08:25:23.086Z,61.99
2023-05-19T08:26:24.725Z,60.02
2023-05-19T08:27:26.381Z,59.84
2023-05-19T08:28:28.004Z,60.00
2023-05-19T08:29:29.592Z,60.04
2023-05-19T08:30:31.405Z,60.82
2023-05-19T08:31:33.322Z,60.43
2023-05-19T08:32:34.995Z,61.05
2023-05-19T08:33:36.637Z,61.66
2023-05-19T08:34:38.321Z,59.59
2023-05-19T08:35:39.949Z,60.55
2023-05-19T08:36:41.930Z,58.24
2023-05-19T08:37:43.606Z,59.21
2023-05-19T08:38:45.577Z,60.34
2023-05-19T08:39:47.475Z,58.66
2023-05-19T08:40:49.136Z,57.27
2023-05-19T08:41:50.790Z,55.62
2023-05-19T08:42:52.407Z,55.69
2023-05-19T08:43:54.377Z,57.18
2023-05-19T08:44:56.105Z,57.79
2023-05-19T08:45:59.733Z,56.86
2023-05-19T08:47:05.301Z,57.49
2023-05-19T08:48:07.829Z,56.55
2023-05-19T08:49:13.326Z,55.92
2023-05-19T08:50:17.924Z,57.89
2023-05-19T08:51:25.460Z,59.47
2023-05-19T08:52:33.136Z,58.17
2023-05-19T08:53:41.053Z,57.61
2023-05-19T08:55:01.215Z,59.13
2023-05-19T08:56:11.808Z,60.10
2023-05-19T08:57:13.762Z,60.48
2023-05-19T08:58:16.561Z,61.94
2023-05-19T08:59:18.393Z,63.28
2023-05-19T09:00:20.828Z,62.55
2023-05-19T09:01:22.587Z,63.58
2023-05-19T09:02:24.576Z,63.55
2023-05-19T09:03:27.000Z,63.76
2023-05-19T09:04:30.176Z,63.36
2023-05-19T09:05:32.615Z,63.55
2023-05-19T09:06:34.915Z,65.47
2023-05-19T09:07:37.849Z,63.10
2023-05-19T09:08:40.436Z,63.83
2023-05-19T09:09:43.964Z,62.78
2023-05-19T09:10:45.751Z,61.82
2023-05-19T09:11:47.484Z,61.47
2023-05-19T09:12:49.817Z,61.98
2023-05-19T09:13:51.930Z,60.29
2023-05-19T09:14:53.872Z,62.54
2023-05-19T09:15:57.453Z,60.21
2023-05-19T09:16:59.182Z,61.44
2023-05-19T09:18:08.906Z,60.95
2023-05-19T09:19:15.392Z,61.35
2023-05-19T09:20:17.504Z,61.41
2023-05-19T09:21:19.166Z,61.42
2023-05-19T09:22:21.173Z,62.08
2023-05-19T09:23:24.931Z,60.89
2023-05-19T09:24:27.164Z,62.41
2023-05-19T09:25:28.816Z,61.97
2023-05-19T09:26:38.566Z,61.35
2023-05-19T09:27:40.300Z,61.54
2023-05-19T09:28:41.974Z,61.92
2023-05-19T09:29:43.917Z,61.64
2023-05-19T09:30:45.589Z,62.43
2023-05-19T09:31:50.864Z,62.72
2023-05-19T09:32:52.610Z,62.57
2023-05-19T09:33:54.337Z,64.28
2023-05-19T09:34:56.419Z,62.40
2023-05-19T09:35:58.252Z,63.71
2023-05-19T09:37:00.088Z,61.47
2023-05-19T09:38:01.744Z,62.06
2023-05-19T09:39:13.145Z,60.47
2023-05-19T09:40:16.354Z,60.60
2023-05-19T09:41:18.072Z,60.31
2023-05-19T09:42:27.179Z,60.00
2023-05-19T09:43:35.448Z,61.00
2023-05-19T09:44:37.343Z,60.15
2023-05-19T09:45:38.957Z,59.64
2023-05-19T09:46:48.244Z,60.22
2023-05-19T09:47:49.929Z,61.92
2023-05-19T09:48:52.948Z,61.44
2023-05-19T09:49:54.687Z,60.58
2023-05-19T09:50:57.876Z,61.11
2023-05-19T09:52:02.449Z,61.13
2023-05-19T09:53:04.103Z,60.81
2023-05-19T09:54:05.753Z,62.18
2023-05-19T09:55:10.404Z,60.63
2023-05-19T09:56:15.078Z,62.74
2023-05-19T09:57:16.978Z,60.60
2023-05-19T09:58:19.076Z,62.03
2023-05-19T09:59:24.392Z,62.14
2023-05-19T10:00:26.792Z,61.08
2023-05-19T10:01:28.290Z,60.50
2023-05-19T10:02:30.443Z,60.77
2023-05-19T10:03:35.085Z,60.50
2023-05-19T10:04:37.210Z,62.44
2023-05-19T10:05:39.821Z,63.72
2023-05-19T10:06:41.897Z,61.71
2023-05-19T10:07:51.600Z,61.92
2023-05-19T10:08:54.668Z,61.17
2023-05-19T10:09:59.616Z,61.34
2023-05-19T10:11:01.824Z,60.75
2023-05-19T10:12:03.865Z,61.55
2023-05-19T10:13:06.107Z,61.06
2023-05-19T10:14:08.264Z,61.47
2023-05-19T10:15:11.822Z,62.77
2023-05-19T10:16:13.822Z,59.41
2023-05-19T10:17:15.632Z,59.38
2023-05-19T10:18:18.700Z,59.52
2023-05-19T10:19:24.872Z,58.69
2023-05-19T10:20:26.955Z,58.95
2023-05-19T10:21:28.799Z,58.75
2023-05-19T10:22:30.509Z,61.21
2023-05-19T10:23:32.179Z,60.63
2023-05-19T10:24:33.827Z,61.71
2023-05-19T10:25:36.531Z,61.10
2023-05-19T10:26:39.900Z,61.22
2023-05-19T10:27:51.502Z,61.18
2023-05-19T10:28:53.329Z,61.62
2023-05-19T10:29:57.615Z,62.10
2023-05-19T10:31:00.603Z,60.90
2023-05-19T10:32:08.386Z,60.84
2023-05-19T10:33:12.957Z,61.67
2023-05-19T10:34:15.044Z,62.91
2023-05-19T10:35:35.375Z,61.77
2023-05-19T10:36:49.909Z,62.99
2023-05-19T10:37:53.604Z,62.32
2023-05-19T10:39:06.393Z,62.46
2023-05-19T10:40:11.979Z,62.50
2023-05-19T10:41:23.034Z,61.66
2023-05-19T10:42:36.413Z,62.29
2023-05-19T10:44:07.357Z,61.66
2023-05-19T10:45:21.123Z,60.75
2023-05-19T10:46:29.717Z,61.62
2023-05-19T10:47:32.499Z,60.59
2023-05-19T10:48:36.463Z,61.38
2023-05-19T10:49:38.272Z,61.73
2023-05-19T10:50:39.912Z,61.83
2023-05-19T10:51:45.467Z,61.26
2023-05-19T10:52:53.871Z,60.94
2023-05-19T10:53:55.537Z,61.38
2023-05-19T10:54:58.376Z,60.80
2023-05-19T10:56:06.851Z,61.06
2023-05-19T10:57:09.907Z,62.23
2023-05-19T10:58:11.873Z,61.22
2023-05-19T10:59:32.244Z,62.53
2023-05-19T11:00:34.013Z,61.75
2023-05-19T11:01:37.303Z,61.58
2023-05-19T11:02:41.503Z,60.95
2023-05-19T11:03:53.861Z,62.12
2023-05-19T11:04:58.457Z,62.54
2023-05-19T11:06:19.201Z,64.11
2023-05-19T11:07:22.287Z,63.73
2023-05-19T11:08:33.651Z,63.20
2023-05-19T11:09:41.060Z,62.29
2023-05-19T11:10:48.370Z,63.42
2023-05-19T11:11:53.120Z,62.98
2023-05-19T11:14:00.384Z,63.56
2023-05-19T11:15:03.371Z,63.36
2023-05-19T11:16:09.227Z,63.59
2023-05-19T11:17:15.217Z,64.17
2023-05-19T11:18:17.083Z,64.88
2023-05-19T11:19:41.072Z,65.22
2023-05-19T11:20:42.749Z,64.53
2023-05-19T11:21:52.488Z,65.10
2023-05-19T11:23:15.094Z,66.00
2023-05-19T11:24:41.955Z,63.27
2023-05-19T11:25:54.357Z,63.57
2023-05-19T11:26:56.272Z,64.97
2023-05-19T11:27:57.962Z,62.20
2023-05-19T11:28:59.935Z,62.50
2023-05-19T11:30:14.921Z,63.02
2023-05-19T11:31:16.692Z,62.09
2023-05-19T11:32:20.611Z,61.13
2023-05-19T11:33:27.045Z,61.34
2023-05-19T11:34:30.652Z,60.41
2023-05-19T11:35:35.372Z,60.37
2023-05-19T11:36:40.062Z,59.98
2023-05-19T11:37:42.657Z,60.49
2023-05-19T11:38:45.201Z,63.18
2023-05-19T11:39:47.467Z,61.12
2023-05-19T11:40:49.917Z,61.05
2023-05-19T11:41:51.460Z,60.40
2023-05-19T11:42:53.065Z,61.18
2023-05-19T11:43:54.711Z,61.25
2023-05-19T11:44:56.653Z,61.11
2023-05-19T11:45:58.382Z,60.82
2023-05-19T11:47:00.082Z,60.55
2023-05-19T11:48:05.432Z,59.94
2023-05-19T11:49:07.289Z,61.99
2023-05-19T11:50:11.326Z,60.96
2023-05-19T11:51:13.256Z,60.62
2023-05-19T11:52:15.185Z,62.06
2023-05-19T11:53:17.277Z,62.29
2023-05-19T11:54:19.317Z,62.26
2023-05-19T11:55:22.211Z,63.28
2023-05-19T11:56:23.953Z,61.07
2023-05-19T11:57:25.603Z,63.50
2023-05-19T11:58:27.922Z,60.88
2023-05-19T11:59:31.728Z,62.07
2023-05-19T12:00:38.092Z,60.33
2023-05-19T12:01:39.769Z,61.23
2023-05-19T12:02:41.536Z,63.83
2023-05-19T12:03:43.433Z,62.61
2023-05-19T12:04:46.060Z,62.65
2023-05-19T12:05:49.205Z,64.92
2023-05-19T12:06:52.299Z,62.51
2023-05-19T12:07:54.104Z,62.50
2023-05-19T12:08:55.892Z,62.67
2023-05-19T12:09:59.950Z,62.21
2023-05-19T12:11:01.775Z,62.64
2023-05-19T12:12:03.799Z,63.57
2023-05-19T12:13:08.073Z,63.06
2023-05-19T12:14:09.759Z,62.85
2023-05-19T12:15:11.746Z,63.36
2023-05-19T12:16:13.690Z,64.34
2023-05-19T12:17:16.948Z,65.89
2023-05-19T12:18:19.342Z,63.95
2023-05-19T12:19:23.987Z,63.94
2023-05-19T12:20:26.784Z,63.78
2023-05-19T12:21:34.269Z,66.69
2023-05-19T12:22:36.857Z,65.54
2023-05-19T12:23:38.980Z,66.29
2023-05-19T12:24:42.701Z,65.44
2023-05-19T12:25:44.526Z,65.52
2023-05-19T12:26:46.120Z,66.56
2023-05-19T12:27:49.563Z,64.69
2023-05-19T12:28:52.715Z,64.31
2023-05-19T12:29:57.156Z,65.12
2023-05-19T12:30:59.022Z,65.63
2023-05-19T12:32:01.748Z,65.89
2023-05-19T12:33:03.726Z,66.66
2023-05-19T12:34:05.477Z,67.62
2023-05-19T12:35:07.704Z,65.45
2023-05-19T12:36:10.350Z,66.85
2023-05-19T12:37:12.036Z,66.04
2023-05-19T12:38:14.534Z,65.50
2023-05-19T12:39:16.687Z,65.92
2023-05-19T12:40:18.345Z,65.64
2023-05-19T12:41:20.082Z,66.93
2023-05-19T12:42:22.788Z,69.89
2023-05-19T12:43:25.154Z,64.44
2023-05-19T12:44:28.021Z,65.05
2023-05-19T12:45:37.350Z,65.32
2023-05-19T12:46:40.471Z,68.55
2023-05-19T12:47:42.130Z,65.32
2023-05-19T12:48:44.495Z,65.64
2023-05-19T12:49:56.856Z,65.48
2023-05-19T12:50:58.602Z,64.52
2023-05-19T12:52:06.083Z,64.89
2023-05-19T12:53:12.167Z,63.92
2023-05-19T12:54:13.876Z,66.51
2023-05-19T12:55:16.703Z,63.76
2023-05-19T12:56:18.357Z,63.86
2023-05-19T12:57:20.937Z,66.39
2023-05-19T12:58:24.167Z,66.21
2023-05-19T12:59:37.411Z,64.84
2023-05-19T13:00:45.387Z,63.91
2023-05-19T13:01:56.261Z,63.60
2023-05-19T13:03:05.359Z,64.87
2023-05-19T13:04:07.778Z,64.08
2023-05-19T13:05:09.607Z,63.78
2023-05-19T13:06:11.767Z,62.55
2023-05-19T13:07:13.604Z,62.54
2023-05-19T13:08:20.307Z,62.94
2023-05-19T13:09:22.179Z,64.50
2023-05-19T13:10:26.893Z,63.27
2023-05-19T13:11:29.166Z,63.59
2023-05-19T13:12:30.803Z,63.38
2023-05-19T13:13:32.706Z,63.41
2023-05-19T13:14:34.410Z,62.45
2023-05-19T13:15:41.735Z,62.39
2023-05-19T13:16:43.442Z,61.96
2023-05-19T13:17:46.431Z,62.75
2023-05-19T13:18:48.185Z,61.50
2023-05-19T13:19:49.985Z,60.92
2023-05-19T13:20:53.017Z,61.49
2023-05-19T13:21:54.819Z,60.52
2023-05-19T13:22:57.068Z,60.79
2023-05-19T13:23:58.736Z,62.16
2023-05-19T13:25:02.202Z,59.94
2023-05-19T13:26:05.034Z,59.75
2023-05-19T13:27:06.694Z,60.10
2023-05-19T13:28:08.752Z,61.60
2023-05-19T13:29:11.885Z,61.29
2023-05-19T13:30:14.110Z,60.08
2023-05-19T13:31:15.873Z,59.91
2023-05-19T13:32:17.531Z,61.40
2023-05-19T13:33:19.173Z,61.81
2023-05-19T13:34:20.946Z,60.35
2023-05-19T13:35:22.735Z,60.58
2023-05-19T13:36:25.627Z,61.12
2023-05-19T13:37:27.580Z,60.95
2023-05-19T13:38:30.394Z,62.70
2023-05-19T13:39:32.086Z,62.49
2023-05-19T13:40:34.966Z,61.32
2023-05-19T13:41:38.353Z,60.98
2023-05-19T13:42:40.955Z,64.35
2023-05-19T13:43:42.592Z,64.00
2023-05-19T13:44:47.565Z,63.68
2023-05-19T13:45:49.387Z,64.08